Riverdale, New York
Current Conditions -  °F | °C
As of 5:51 AM on Sunday 21 Dec 2014 (Local Time) from KLGA Reporting Station
Overcast Overcast  
Wind Chill: 32°   Ceiling: 2400
Heat Index: 32°   Visibility: 10mi
Dew Point: 25°   Wind: 3mph
Humidity: 75%   Direction: NA
Pressure: 30.28"   Gusts: NA
Location:  40.8999°N, 73.9028°W
Report Text: KLGA 211051Z VRB03KT 10SM SCT019 OVC024 00/M04 A3028 RMK AO2 SLP254 T00001039
Loading
Personal Weather Stations






























Interactive Weather Map New forecast layout! Learn more

10-Day Weather Forecast

Advertisements
Track Severe Weather on mobile